createdAt,value
2023-07-02T00:00:39.752Z,5.00
2023-07-02T00:05:41.547Z,4.43
2023-07-02T00:10:44.560Z,4.45
2023-07-02T00:15:46.481Z,4.97
2023-07-02T00:20:48.527Z,4.90
2023-07-02T00:25:50.485Z,5.22
2023-07-02T00:30:52.423Z,4.93
2023-07-02T00:35:54.330Z,4.75
2023-07-02T00:40:56.294Z,5.53
2023-07-02T00:45:58.940Z,5.90
2023-07-02T00:51:01.589Z,6.35
2023-07-02T00:56:03.471Z,6.45
2023-07-02T01:01:05.530Z,5.07
2023-07-02T01:06:07.437Z,5.93
2023-07-02T01:11:09.393Z,6.13
2023-07-02T01:16:11.764Z,8.20
2023-07-02T01:21:14.171Z,7.78
2023-07-02T01:26:16.872Z,6.55
2023-07-02T01:31:18.816Z,9.35
2023-07-02T01:36:21.103Z,6.30
2023-07-02T01:41:22.908Z,6.38
2023-07-02T01:46:24.728Z,7.40
2023-07-02T01:51:26.574Z,7.00
2023-07-02T01:56:29.250Z,7.82
2023-07-02T02:01:31.226Z,5.85
2023-07-02T02:06:33.101Z,5.57
2023-07-02T02:11:39.323Z,5.63
2023-07-02T02:16:41.225Z,5.07
2023-07-02T02:21:44.080Z,5.38
2023-07-02T02:26:45.905Z,7.18
2023-07-02T02:31:47.768Z,5.85
2023-07-02T02:36:50.271Z,5.93
2023-07-02T02:41:52.098Z,6.45
2023-07-02T02:46:56.877Z,7.65
2023-07-02T02:51:59.008Z,5.10
2023-07-02T02:57:00.829Z,5.60
2023-07-02T03:02:02.979Z,4.60
2023-07-02T03:07:05.073Z,5.25
2023-07-02T03:12:07.564Z,10.13
2023-07-02T03:17:09.783Z,5.95
2023-07-02T03:22:11.640Z,5.22
2023-07-02T03:27:13.537Z,6.45
2023-07-02T03:32:15.304Z,7.10
2023-07-02T03:37:17.141Z,6.90
2023-07-02T03:42:18.988Z,8.50
2023-07-02T03:47:20.977Z,5.95
2023-07-02T03:52:22.772Z,3.38
2023-07-02T03:57:24.580Z,3.28
2023-07-02T04:02:26.446Z,4.63
2023-07-02T04:07:28.242Z,8.48
2023-07-02T04:12:31.124Z,4.65
2023-07-02T04:17:32.984Z,4.53
2023-07-02T04:22:34.872Z,5.47
2023-07-02T04:27:50.786Z,9.68
2023-07-02T04:32:53.814Z,4.10
2023-07-02T04:37:56.009Z,4.38
2023-07-02T04:43:00.785Z,4.70
2023-07-02T04:48:03.439Z,4.38
2023-07-02T04:53:05.288Z,4.28
2023-07-02T04:58:07.186Z,5.90
2023-07-02T05:03:09.198Z,6.65
2023-07-02T05:08:11.543Z,6.65
2023-07-02T05:13:13.636Z,9.07
2023-07-02T05:18:15.416Z,6.40
2023-07-02T05:23:17.220Z,6.60
2023-07-02T05:28:19.057Z,6.13
2023-07-02T05:33:23.064Z,8.13
2023-07-02T05:43:27.289Z,7.63
2023-07-02T05:48:29.337Z,7.55
2023-07-02T05:53:31.121Z,7.38
2023-07-02T05:58:43.375Z,7.72
2023-07-02T06:03:51.674Z,10.73
2023-07-02T06:08:53.634Z,6.97
2023-07-02T06:13:56.324Z,7.63
2023-07-02T06:18:58.158Z,8.73
2023-07-02T06:24:03.103Z,8.90
2023-07-02T06:29:05.194Z,9.65
2023-07-02T06:34:07.441Z,8.55
2023-07-02T06:39:10.362Z,8.02
2023-07-02T06:44:12.763Z,13.47
2023-07-02T06:49:14.623Z,9.80
2023-07-02T06:54:16.471Z,8.95
2023-07-02T06:59:22.310Z,7.65
2023-07-02T07:04:24.321Z,9.80
2023-07-02T07:09:26.869Z,10.02
2023-07-02T07:14:28.661Z,8.48
2023-07-02T07:19:30.484Z,9.15
2023-07-02T07:24:32.313Z,9.82
2023-07-02T07:29:34.445Z,11.45
2023-07-02T07:34:36.439Z,10.02
2023-07-02T07:39:38.257Z,7.68
2023-07-02T07:44:40.005Z,9.65
2023-07-02T07:49:41.790Z,9.68
2023-07-02T07:54:43.621Z,10.05
2023-07-02T07:59:45.375Z,9.85
2023-07-02T08:04:47.216Z,8.02
2023-07-02T08:09:49.725Z,8.75
2023-07-02T08:14:51.508Z,9.57
2023-07-02T08:19:53.359Z,10.30
2023-07-02T08:24:55.807Z,8.15
2023-07-02T08:29:57.610Z,8.93
2023-07-02T08:34:59.385Z,7.25
2023-07-02T08:40:01.139Z,10.98
2023-07-02T08:45:03.742Z,8.38
2023-07-02T08:50:06.300Z,16.40
2023-07-02T08:55:08.677Z,9.20
2023-07-02T09:00:11.947Z,8.27
2023-07-02T09:05:14.344Z,9.80
2023-07-02T09:10:32.338Z,8.83
2023-07-02T09:15:38.691Z,11.25
2023-07-02T09:20:40.473Z,9.95
2023-07-02T09:25:42.332Z,8.40
2023-07-02T09:30:57.841Z,9.95
2023-07-02T09:35:59.868Z,11.70
2023-07-02T09:41:01.788Z,9.52
2023-07-02T09:46:04.805Z,11.30
2023-07-02T09:51:06.693Z,12.32
2023-07-02T09:56:10.057Z,10.07
2023-07-02T10:06:13.880Z,8.55
2023-07-02T10:11:15.765Z,11.10
2023-07-02T10:16:17.739Z,8.95
2023-07-02T10:21:19.555Z,10.68
2023-07-02T10:26:21.402Z,10.75
2023-07-02T10:31:23.324Z,10.10
2023-07-02T10:36:26.389Z,9.40
2023-07-02T10:41:31.395Z,8.93
2023-07-02T10:46:33.274Z,9.30
2023-07-02T10:51:35.194Z,12.00
2023-07-02T10:56:36.999Z,8.50
2023-07-02T11:01:38.803Z,9.02
2023-07-02T11:06:40.681Z,10.55
2023-07-02T11:11:56.642Z,9.40
2023-07-02T11:17:06.885Z,8.40
2023-07-02T11:22:08.854Z,10.20
2023-07-02T11:27:21.477Z,8.25
2023-07-02T11:32:23.269Z,9.93
2023-07-02T11:37:25.729Z,7.82
2023-07-02T11:42:30.605Z,7.70
2023-07-02T11:47:32.450Z,12.25
2023-07-02T11:52:34.257Z,7.90
2023-07-02T11:57:36.024Z,7.22
2023-07-02T12:02:37.815Z,7.28
2023-07-02T12:07:39.802Z,9.40
2023-07-02T12:12:41.671Z,9.93
2023-07-02T12:17:43.521Z,9.68
2023-07-02T12:22:45.716Z,9.43
2023-07-02T12:27:47.525Z,10.68
2023-07-02T12:32:49.381Z,11.40
2023-07-02T12:37:53.072Z,8.50
2023-07-02T12:42:54.921Z,11.30
2023-07-02T12:47:56.721Z,8.73
2023-07-02T12:52:58.604Z,11.50
2023-07-02T12:58:00.404Z,10.23
2023-07-02T13:03:05.380Z,11.23
2023-07-02T13:08:08.030Z,10.15
2023-07-02T13:13:22.386Z,12.45
2023-07-02T13:18:25.553Z,10.95
2023-07-02T13:23:28.485Z,11.77
2023-07-02T13:28:30.309Z,8.95
2023-07-02T13:33:32.164Z,10.15
2023-07-02T13:38:34.207Z,10.57
2023-07-02T13:43:36.689Z,10.60
2023-07-02T13:48:38.561Z,11.00
2023-07-02T13:53:40.345Z,10.30
2023-07-02T13:58:58.170Z,11.75
2023-07-02T14:04:00.263Z,11.60
2023-07-02T14:09:02.268Z,11.55
2023-07-02T14:14:04.227Z,11.45
2023-07-02T14:19:06.338Z,16.70
2023-07-02T14:24:08.631Z,10.68
2023-07-02T14:29:10.910Z,11.60
2023-07-02T14:34:12.835Z,11.40
2023-07-02T14:39:14.693Z,17.13
2023-07-02T14:44:16.630Z,12.05
2023-07-02T14:49:18.641Z,12.40
2023-07-02T14:54:20.605Z,15.43
2023-07-02T14:59:22.458Z,14.07
2023-07-02T15:04:24.449Z,16.55
2023-07-02T15:09:26.376Z,14.57
2023-07-02T15:14:28.193Z,13.70
2023-07-02T15:19:29.963Z,12.73
2023-07-02T15:24:32.021Z,14.98
2023-07-02T15:29:35.355Z,16.20
2023-07-02T15:34:37.342Z,16.40
2023-07-02T15:39:39.187Z,18.08
2023-07-02T15:44:40.976Z,16.65
2023-07-02T15:49:42.927Z,17.23
2023-07-02T15:54:44.803Z,12.98
2023-07-02T15:59:46.669Z,17.20
2023-07-02T16:04:48.748Z,18.20
2023-07-02T16:09:50.662Z,14.13
2023-07-02T16:14:52.624Z,14.80
2023-07-02T16:19:54.590Z,12.63
2023-07-02T16:24:56.365Z,16.92
2023-07-02T16:29:58.197Z,16.23
2023-07-02T16:35:00.024Z,15.23
2023-07-02T16:40:02.951Z,15.52
2023-07-02T16:45:07.144Z,16.90
2023-07-02T16:50:09.473Z,15.82
2023-07-02T16:55:11.745Z,19.30
2023-07-02T17:00:14.319Z,15.70
2023-07-02T17:05:16.616Z,18.67
2023-07-02T17:10:18.527Z,16.58
2023-07-02T17:15:20.603Z,17.67
2023-07-02T17:20:22.443Z,18.35
2023-07-02T17:25:24.273Z,18.63
2023-07-02T17:30:26.591Z,21.00
2023-07-02T17:35:28.733Z,16.77
2023-07-02T17:40:33.450Z,16.02
2023-07-02T17:45:35.561Z,18.02
2023-07-02T17:50:37.377Z,16.23
2023-07-02T17:55:39.202Z,15.85
2023-07-02T18:00:41.006Z,17.73
2023-07-02T18:05:43.077Z,16.08
2023-07-02T18:10:50.085Z,18.38
2023-07-02T18:15:52.838Z,16.50
2023-07-02T18:20:55.036Z,17.93
2023-07-02T18:25:59.176Z,15.93
2023-07-02T18:31:01.581Z,18.35
2023-07-02T18:36:03.936Z,16.95
2023-07-02T18:41:08.718Z,16.65
2023-07-02T18:46:10.781Z,15.35
2023-07-02T18:51:13.098Z,18.50
2023-07-02T18:56:14.972Z,19.17
2023-07-02T19:01:18.173Z,15.88
2023-07-02T19:06:20.028Z,17.83
2023-07-02T19:11:21.915Z,18.27
2023-07-02T19:16:23.784Z,19.70
2023-07-02T19:21:25.578Z,16.67
2023-07-02T19:26:27.580Z,20.95
2023-07-02T19:31:29.387Z,17.42
2023-07-02T19:36:31.201Z,19.17
2023-07-02T19:41:33.023Z,16.17
2023-07-02T19:46:35.099Z,17.40
2023-07-02T19:51:37.110Z,20.05
2023-07-02T19:56:38.907Z,18.30
2023-07-02T20:01:41.009Z,20.67
2023-07-02T20:06:43.309Z,21.23
2023-07-02T20:11:45.339Z,18.20
2023-07-02T20:16:51.978Z,16.17
2023-07-02T20:21:56.188Z,17.45
2023-07-02T20:26:58.868Z,13.98
2023-07-02T20:32:00.634Z,14.68
2023-07-02T20:37:02.437Z,15.65
2023-07-02T20:42:06.717Z,18.65
2023-07-02T20:47:09.653Z,17.33
2023-07-02T20:52:11.462Z,20.10
2023-07-02T20:57:15.435Z,17.48
2023-07-02T21:07:19.495Z,19.13
2023-07-02T21:12:21.284Z,21.58
2023-07-02T21:17:23.165Z,23.50
2023-07-02T21:22:25.031Z,19.63
2023-07-02T21:27:26.902Z,20.75
2023-07-02T21:32:28.805Z,21.05
2023-07-02T21:37:30.600Z,23.70
2023-07-02T21:42:32.367Z,18.70
2023-07-02T21:47:34.169Z,20.23
2023-07-02T21:52:36.074Z,22.13
2023-07-02T21:57:38.052Z,21.70
2023-07-02T22:02:39.923Z,23.33
2023-07-02T22:07:41.755Z,20.50
2023-07-02T22:12:46.292Z,23.77
2023-07-02T22:17:48.254Z,24.20
2023-07-02T22:22:50.059Z,20.95
2023-07-02T22:27:52.060Z,25.67
2023-07-02T22:32:53.895Z,22.77
2023-07-02T22:37:57.126Z,24.42
2023-07-02T22:42:58.886Z,25.73
2023-07-02T22:48:00.740Z,20.75
2023-07-02T22:53:02.558Z,23.65
2023-07-02T22:58:04.479Z,23.20
2023-07-02T23:03:06.744Z,25.15
2023-07-02T23:08:08.956Z,21.15
2023-07-02T23:13:10.957Z,21.40
2023-07-02T23:18:15.071Z,26.25
2023-07-02T23:28:18.945Z,26.90
2023-07-02T23:33:22.439Z,27.75
2023-07-02T23:38:24.303Z,24.73
2023-07-02T23:43:26.072Z,28.98
2023-07-02T23:48:27.887Z,24.80
2023-07-02T23:53:29.718Z,23.00
2023-07-02T23:58:31.582Z,25.75
